»·PEaware :: N895PW KEMT-F70

N895PW :: KEMT-F70

FLIGHT INFORMATION

Flight Status: Arrived
Operator: Privately registered:
United States
More flights under this callsign
Pilot: Robert C. (26285)
Aircraft: CESSNA 172 SKYHAWK
(C172)
More flights by this aircraft type
Origin: KEMT El Monte
United States
Destination: F70 French Valley
United States
More flights between these airports :: More routes between these airports
Route: +PDZ
File this flight plan on PilotEdge
Remarks:
Altitude:
(Current/Filed)
5,500ft
Speed:
(Current/Filed)
120kts
Departed: 29-Sep-19 01:41 PM
Arrived: 29-Sep-19 01:54 PM
Distance/Time
Traveled:
54nm/0:13
Distance/Time
To Go:
Arrived

Flight Plot

Page will automatically refresh every two minutes.


Map Options




Map Legend


Flown Route
Filed Route
Departure Airport
Arrival Airport
Navaid (VOR, NDB)
Fix

Horizontal Profiles

Position Reports

Time Latitude Longitude Heading Altitude Ground
Speed
29-Sep-19 13:08 33.578650 -117.128373 103 1353ft 0kts
29-Sep-19 13:09 33.578650 -117.128373 103 1353ft 0kts
29-Sep-19 13:10 33.578650 -117.128373 103 1353ft 0kts
29-Sep-19 13:11 33.578650 -117.128373 103 1353ft 0kts
29-Sep-19 13:12 33.578650 -117.128373 103 1353ft 0kts
29-Sep-19 13:13 33.578650 -117.128373 103 1353ft 0kts
29-Sep-19 13:14 33.578650 -117.128373 103 1353ft 0kts
29-Sep-19 13:15 33.578650 -117.128373 103 1353ft 0kts
29-Sep-19 13:16 33.578650 -117.128373 103 1353ft 0kts
29-Sep-19 13:17 33.578650 -117.128373 103 1353ft 0kts
29-Sep-19 13:18 33.578650 -117.128373 103 1353ft 0kts
29-Sep-19 13:18 33.578650 -117.128373 103 1353ft 0kts
29-Sep-19 13:20 33.578651 -117.128373 103 1353ft 0kts
29-Sep-19 13:21 33.578650 -117.128373 103 1353ft 0kts
29-Sep-19 13:21 33.578651 -117.128373 103 1353ft 0kts
29-Sep-19 13:23 33.578650 -117.128373 103 1353ft 0kts
29-Sep-19 13:24 33.578651 -117.128373 103 1353ft 0kts
29-Sep-19 13:24 33.578650 -117.128373 103 1353ft 0kts
29-Sep-19 13:25 33.578650 -117.128373 103 1353ft 0kts
29-Sep-19 13:26 33.578651 -117.128373 103 1353ft 0kts
29-Sep-19 13:27 33.578650 -117.128373 103 1353ft 0kts
29-Sep-19 13:28 33.578650 -117.128373 103 1353ft 0kts
29-Sep-19 13:29 33.578651 -117.128373 103 1353ft 0kts
29-Sep-19 13:30 33.578643 -117.128337 103 1353ft 0kts
29-Sep-19 13:31 33.579753 -117.127830 10 1353ft 8kts
29-Sep-19 13:32 33.581973 -117.127277 352 1353ft 9kts
29-Sep-19 13:33 33.582265 -117.127383 328 1353ft 0kts
29-Sep-19 13:34 33.582265 -117.127383 328 1353ft 0kts
29-Sep-19 13:35 33.582265 -117.127383 328 1353ft 0kts
29-Sep-19 13:36 33.582265 -117.127383 328 1353ft 0kts
29-Sep-19 13:37 33.582273 -117.127388 330 1353ft 0kts
29-Sep-19 13:38 33.582275 -117.126931 97 1353ft 0kts
29-Sep-19 13:39 33.582275 -117.126931 96 1353ft 0kts
29-Sep-19 13:40 33.577813 -117.127265 190 1422ft 60kts
29-Sep-19 13:41 33.559508 -117.132096 220 2261ft 66kts
29-Sep-19 13:42 33.562108 -117.155888 294 2831ft 76kts
29-Sep-19 13:43 33.588414 -117.153167 18 2711ft 112kts
29-Sep-19 13:44 33.614838 -117.138230 69 2404ft 106kts
29-Sep-19 13:45 33.605871 -117.117094 207 2052ft 70kts
29-Sep-19 13:46 33.589947 -117.124344 196 1556ft 63kts
29-Sep-19 13:47 33.575302 -117.128195 196 1383ft 61kts
29-Sep-19 13:48 33.554857 -117.132051 237 2046ft 86kts
29-Sep-19 13:49 33.570676 -117.147357 6 2432ft 109kts
29-Sep-19 13:50 33.599001 -117.143667 357 2221ft 100kts
29-Sep-19 13:51 33.596379 -117.122131 200 1700ft 76kts
29-Sep-19 13:52 33.579551 -117.127071 202 1353ft 47kts
29-Sep-19 13:53 33.577897 -117.128355 283 1353ft 5kts
29-Sep-19 13:54 33.578168 -117.128506 100 1353ft 0kts
29-Sep-19 13:55 33.578168 -117.128506 100 1353ft 0kts
29-Sep-19 13:56 33.578168 -117.128506 100 1353ft 0kts
29-Sep-19 13:57 33.578168 -117.128506 100 1353ft 0kts
29-Sep-19 13:58 33.578168 -117.128506 100 1353ft 0kts
29-Sep-19 13:59 33.578168 -117.128506 100 1353ft 0kts
29-Sep-19 14:00 33.578168 -117.128506 100 1353ft 0kts
29-Sep-19 14:01 33.578168 -117.128506 100 1353ft 0kts
29-Sep-19 14:02 33.578168 -117.128506 100 1353ft 0kts
29-Sep-19 14:03 33.578650 -117.128373 103 1353ft 0kts
29-Sep-19 14:04 33.578650 -117.128373 103 1353ft 0kts
29-Sep-19 14:05 33.578650 -117.128373 103 1353ft 0kts
29-Sep-19 14:06 33.578650 -117.128373 103 1353ft 0kts
29-Sep-19 14:07 33.578650 -117.128373 103 1353ft 0kts

Navigation Log

Ident Type
Flight plan parsing failed, navigation log unavailable